HECALGAV

Guest
Details From HECA - Cairo Intl
To LGAV - Athens Intl Airport Elefterios Venizel
Flight Number -
Tags decoded
Created
Modified
Stats Distance 598 nm / 1,108 km
Max Altitude 0 ft / 0 m
Waypoints 2
Social Downloads 3
Likes 0
Share VATSIM

Download

Looking for another format? Having issues loading an existing format? Contact us
Advertisement - Login to hide

Notes

Requested: HECA LGAV

Route

HECA LGAV

ID Type Via Altitude Latitude Longitude Leg Dist Tot Dist Heading (true) Name
O HECA APT - 0 ft / 0 m 30.12181˚ 31.40610˚ - 0 nm - Cairo Intl
O LGAV APT - 0 ft / 0 m 37.93636˚ 23.94447˚ 598 nm 598 nm 324° / 319° Athens Intl Airport Elefterios Venizel

Altitude Profile

Advertisement - Login to hide

Weather


0- 5 10 15 20 25 30 35+ Temperature / ° C

Clouds and Precipitation
Forecast for 2017-12-13 18:00 UTC. Updated 2 hours ago

Ground ~20,000 ft ~40,000 ft Winds

HECA

Details ICAO HECA (CAI)
Name Cairo Intl
Region Egypt
Timezone Africa/Cairo (UTC+2.0)
Stats Elevation 382 ft / 116 m (AMSL)
Location 30.121808° 31.406095°
Runways 3
Magnetic Variation 4.403° E

METAR

HECA 131900Z 36006KT 6000 SCT025 BKN070 17/12 Q1022 NOSIG

Decode

TAF

TAF HECA 131702Z 1318/1424 34010KT 6000 SCT025 BKN070 TEMPO 1400/1407 VRB03KT 3000 BR PROB30 TEMPO 1403/1406 0800 FG VV///

Decode

Departure Runways

ID Width Length Bearing (true) Bearing (mag) Surface Threshold Offset Overrun Length
05L 197 ft / 60 m 10,833 ft / 3,302 m 49.29° 44.89° Asphalt 0 ft / 0 m 185 ft / 56 m
05R 197 ft / 60 m 13,126 ft / 4,001 m 49.03° 44.63° Asphalt 0 ft / 0 m 216 ft / 66 m
16 197 ft / 60 m 10,456 ft / 3,187 m 162.61° 158.21° Asphalt 0 ft / 0 m 125 ft / 38 m
23L 197 ft / 60 m 13,126 ft / 4,001 m 229.05° 224.65° Asphalt 0 ft / 0 m 225 ft / 69 m
23R 197 ft / 60 m 10,833 ft / 3,302 m 229.30° 224.90° Asphalt 0 ft / 0 m 185 ft / 56 m
34 197 ft / 60 m 10,456 ft / 3,187 m 342.61° 338.21° Asphalt 0 ft / 0 m 195 ft / 59 m

LGAV

Details ICAO LGAV (ATH)
Name Athens Intl Airport Elefterios Venizel
Region Greece
Timezone Europe/Athens (UTC+2.0)
Stats Elevation 308 ft / 94 m (AMSL)
Location 37.936357° 23.944470°
Runways 2
Magnetic Variation 4.484° E

METAR

LGAV 131850Z VRB02KT CAVOK 14/06 Q1019 NOSIG

Decode

TAF

TAF LGAV 131700Z 1318/1418 25008KT 9999 FEW025= TAF LGEL 131700Z 1318/1418 26010KT 9999 FEW025 BECMG 1319/1321 VRB05KT

Decode

Destination Runways

ID Width Length Bearing (true) Bearing (mag) Surface Threshold Offset Overrun Length
03L 148 ft / 45 m 12,474 ft / 3,802 m 36.51° 32.03° Asphalt 984 ft / 300 m 393 ft / 120 m
03R 148 ft / 45 m 13,131 ft / 4,002 m 36.52° 32.04° Asphalt 984 ft / 300 m 393 ft / 120 m
21L 148 ft / 45 m 13,131 ft / 4,002 m 216.54° 212.06° Asphalt 984 ft / 300 m 393 ft / 120 m
21R 148 ft / 45 m 12,474 ft / 3,802 m 216.53° 212.05° Asphalt 984 ft / 300 m 393 ft / 120 m

Approach Navaids

Runway Type Ident Frequency Range Bearing (true) Bearing (mag) Slope Elevation
03L Localiser IATL 110.50 MHz 18 nm / 33 km 36.52° 32.04° - 282 ft / 86 m (AMSL)
03L Glidescope IATL 110.50 MHz 10 nm / 19 km 36.52° 32.03° 3.00° 255 ft / 78 m (AMSL)
03L DME IATL 110.50 MHz 18 nm / 33 km - - - 255 ft / 78 m (AMSL)
03R Localiser IATR 111.10 MHz 18 nm / 33 km 36.97° 32.49° - 302 ft / 92 m (AMSL)
03R Glidescope IATR 111.10 MHz 10 nm / 19 km 36.53° 32.05° 3.00° 271 ft / 83 m (AMSL)
21L Localiser IEVL 111.10 MHz 18 nm / 33 km 216.52° 212.04° - 271 ft / 83 m (AMSL)
21L Glidescope IEVL 111.10 MHz 10 nm / 19 km 216.53° 212.05° 3.00° 302 ft / 92 m (AMSL)
21L DME IEVL 111.10 MHz 18 nm / 33 km - - - 303 ft / 92 m (AMSL)
21R Localiser IEVR 110.50 MHz 18 nm / 33 km 216.50° 212.02° - 255 ft / 78 m (AMSL)
21R Glidescope IEVR 110.50 MHz 10 nm / 19 km 216.52° 212.03° 3.00° 282 ft / 86 m (AMSL)
21R DME IEVR 110.50 MHz 18 nm / 33 km - - - 282 ft / 86 m (AMSL)

Popular Alternatives